Pittsburgh, Pennsylvania
Traffic Map
Current Weather Conditions
Pittsburgh, Pennsylvania
Clear
Clear
45°
Feels Like: 41°
Wind Chill: 41° Ceiling: Unl
Heat Index: 45° Visibility: 10mi
Dew Point: 38° Wind: 7mph
Humidity: 76% Direction: 160° (SSE)
Pressure: 30.32in Gusts: 0mph
Raw Report DataKAGC 180953Z 16006KT 10SM CLR 07/03 A3032 RMK AO2 SLP272 T00720033
Traffic Incident Summary
Active as of:
Severity:
Category:
InformationThere was an issue retrieving the traffic information for this location. Please try a different location or try again shortly.
Advertisements